createdAt,value
2023-11-01T00:01:17.729Z,14.15
2023-11-01T00:03:49.405Z,14.70
2023-11-01T00:06:53.291Z,17.92
2023-11-01T00:09:24.333Z,21.08
2023-11-01T00:11:52.301Z,14.38
2023-11-01T00:14:28.466Z,18.52
2023-11-01T00:16:55.555Z,22.15
2023-11-01T00:19:31.406Z,22.15
2023-11-01T00:21:58.442Z,24.92
2023-11-01T00:24:25.376Z,29.85
2023-11-01T00:26:52.325Z,24.15
2023-11-01T00:29:19.720Z,24.70
2023-11-01T00:31:47.682Z,28.92
2023-11-01T00:34:14.611Z,26.10
2023-11-01T00:36:41.507Z,28.80
2023-11-01T00:39:08.623Z,34.88
2023-11-01T00:41:43.438Z,26.48
2023-11-01T00:44:18.417Z,30.23
2023-11-01T00:46:45.810Z,31.95
2023-11-01T00:49:27.991Z,25.48
2023-11-01T00:51:55.976Z,29.45
2023-11-01T00:54:22.871Z,26.15
2023-11-01T00:56:56.968Z,31.15
2023-11-01T00:59:28.104Z,26.13
2023-11-01T01:01:55.164Z,26.77
2023-11-01T01:04:22.207Z,27.70
2023-11-01T01:06:49.070Z,23.55
2023-11-01T01:09:16.105Z,23.98
2023-11-01T01:11:45.468Z,24.90
2023-11-01T01:14:12.379Z,21.98
2023-11-01T01:16:39.330Z,27.77
2023-11-01T01:19:06.539Z,32.25
2023-11-01T01:21:33.505Z,26.20
2023-11-01T01:24:00.631Z,26.48
2023-11-01T01:26:27.651Z,25.08
2023-11-01T01:28:54.753Z,27.00
2023-11-01T01:31:21.710Z,29.88
2023-11-01T01:33:48.679Z,37.95
2023-11-01T01:36:15.502Z,27.60
2023-11-01T01:38:42.438Z,30.92
2023-11-01T01:41:09.321Z,30.95
2023-11-01T01:43:36.368Z,27.67
2023-11-01T01:46:15.176Z,24.15
2023-11-01T01:48:46.868Z,29.55
2023-11-01T01:51:14.821Z,28.67
2023-11-01T01:53:44.706Z,29.30
2023-11-01T01:56:12.612Z,20.30
2023-11-01T01:58:41.730Z,25.92
2023-11-01T04:14:57.158Z,8.55
2023-11-01T04:17:24.146Z,15.60
2023-11-01T04:19:51.009Z,10.75
2023-11-01T04:22:18.005Z,12.43
2023-11-01T04:24:45.019Z,8.40
2023-11-01T04:27:12.004Z,10.43
2023-11-01T04:29:39.033Z,7.65
2023-11-01T04:32:06.056Z,8.88
2023-11-01T04:34:33.116Z,7.00
2023-11-01T04:37:00.741Z,7.82
2023-11-01T04:39:27.538Z,8.27
2023-11-01T04:41:54.517Z,9.13
2023-11-01T04:44:21.425Z,11.23
2023-11-01T04:46:48.226Z,6.25
2023-11-01T04:49:15.060Z,8.35
2023-11-01T04:51:42.051Z,5.35
2023-11-01T04:54:09.202Z,8.20
2023-11-01T04:56:36.109Z,9.90
2023-11-01T04:59:03.112Z,7.18
2023-11-01T05:01:32.830Z,8.05
2023-11-01T05:03:59.799Z,10.23
2023-11-01T05:06:28.071Z,9.88
2023-11-01T05:08:55.095Z,8.35
2023-11-01T05:11:24.164Z,8.27
2023-11-01T05:13:51.170Z,7.10
2023-11-01T05:16:18.360Z,6.88
2023-11-01T05:18:45.299Z,14.90
2023-11-01T05:21:12.194Z,5.93
2023-11-01T05:23:39.058Z,8.52
2023-11-01T05:26:06.266Z,8.05
2023-11-01T05:28:33.200Z,6.43
2023-11-01T05:31:00.145Z,5.38
2023-11-01T05:33:27.408Z,5.78
2023-11-01T05:35:54.377Z,7.53
2023-11-01T05:38:21.746Z,5.50
2023-11-01T05:40:48.593Z,5.57
2023-11-01T05:43:15.582Z,6.35
2023-11-01T05:45:42.407Z,3.17
2023-11-01T05:48:10.331Z,5.53
2023-11-01T05:50:37.999Z,3.33
2023-11-01T05:53:10.521Z,5.15
2023-11-01T05:55:48.977Z,9.77
2023-11-01T05:58:25.614Z,6.05
2023-11-01T06:00:53.861Z,9.23
2023-11-01T06:03:21.597Z,6.93
2023-11-01T06:05:48.637Z,4.35
2023-11-01T06:10:43.793Z,5.60
2023-11-01T06:13:10.750Z,5.38
2023-11-01T06:15:38.528Z,4.00
2023-11-01T06:18:09.090Z,6.60
2023-11-01T06:20:37.158Z,6.80
2023-11-01T06:23:10.758Z,7.80
2023-11-01T06:25:40.943Z,7.85
2023-11-01T06:28:09.949Z,6.43
2023-11-01T06:30:37.219Z,8.82
2023-11-01T06:33:04.581Z,2.92
2023-11-01T06:35:31.830Z,2.72
2023-11-01T06:37:59.018Z,3.42
2023-11-01T06:40:26.330Z,4.93
2023-11-01T06:42:54.849Z,2.55
2023-11-01T06:45:22.876Z,2.20
2023-11-01T06:47:50.019Z,2.72
2023-11-01T06:50:16.948Z,1.98
2023-11-01T06:52:46.236Z,1.30
2023-11-01T06:55:14.674Z,1.95
2023-11-01T06:57:41.848Z,3.85
2023-11-01T07:02:46.215Z,3.58
2023-11-01T07:05:13.202Z,4.78
2023-11-01T07:07:40.142Z,4.93
2023-11-01T07:10:09.434Z,4.47
2023-11-01T07:12:37.009Z,4.75
2023-11-01T07:15:08.978Z,5.05
2023-11-01T07:17:36.195Z,3.42
2023-11-01T07:20:05.440Z,3.00
2023-11-01T07:22:32.609Z,3.55
2023-11-01T07:25:01.040Z,2.35
2023-11-01T07:27:28.038Z,2.83
2023-11-01T07:29:55.128Z,2.42
2023-11-01T07:32:24.124Z,4.43
2023-11-01T07:34:51.183Z,2.35
2023-11-01T07:37:18.140Z,1.65
2023-11-01T07:39:45.077Z,3.35
2023-11-01T07:42:11.967Z,1.15
2023-11-01T07:44:39.596Z,2.83
2023-11-01T07:47:06.687Z,2.03
2023-11-01T07:49:33.893Z,3.88
2023-11-01T07:52:01.353Z,2.70
2023-11-01T07:54:28.410Z,2.03
2023-11-01T07:56:55.715Z,3.53
2023-11-01T07:59:24.318Z,1.60
2023-11-01T08:01:51.311Z,3.30
2023-11-01T08:04:19.148Z,2.47
2023-11-01T08:06:49.233Z,2.58
2023-11-01T08:09:16.571Z,1.88
2023-11-01T08:11:43.722Z,1.20
2023-11-01T08:14:11.660Z,1.25
2023-11-01T08:16:39.008Z,1.27
2023-11-01T08:19:06.017Z,2.28
2023-11-01T08:21:33.748Z,1.92
2023-11-01T08:24:00.849Z,0.75
2023-11-01T08:26:27.845Z,0.90
2023-11-01T08:28:54.901Z,1.13
2023-11-01T08:31:22.550Z,2.13
2023-11-01T08:33:49.786Z,2.58
2023-11-01T08:36:16.964Z,1.85
2023-11-01T08:38:44.143Z,3.30
2023-11-01T08:41:15.916Z,2.25
2023-11-01T08:43:43.982Z,2.40
2023-11-01T08:46:12.745Z,3.53
2023-11-01T08:48:39.725Z,1.48
2023-11-01T08:51:09.377Z,1.17
2023-11-01T08:53:40.204Z,1.67
2023-11-01T08:56:09.290Z,2.97
2023-11-01T08:58:36.627Z,1.33
2023-11-01T09:01:03.794Z,2.08
2023-11-01T09:03:31.039Z,12.90
2023-11-01T09:05:58.316Z,8.43
2023-11-01T09:08:25.772Z,4.78
2023-11-01T09:10:54.976Z,0.73
2023-11-01T09:13:24.172Z,1.42
2023-11-01T09:15:51.814Z,1.60
2023-11-01T09:18:19.096Z,1.13
2023-11-01T09:20:46.255Z,1.35
2023-11-01T09:23:13.644Z,1.10
2023-11-01T09:25:40.744Z,1.35
2023-11-01T09:28:07.841Z,1.52
2023-11-01T09:30:37.056Z,1.08
2023-11-01T09:33:04.189Z,3.20
2023-11-01T09:35:31.609Z,0.73
2023-11-01T09:37:58.697Z,0.55
2023-11-01T09:40:25.974Z,0.60
2023-11-01T09:42:54.752Z,4.82
2023-11-01T09:45:21.797Z,1.10
2023-11-01T09:47:51.473Z,2.90
2023-11-01T09:50:19.016Z,4.13
2023-11-01T09:52:46.116Z,2.00
2023-11-01T09:55:16.623Z,3.08
2023-11-01T09:57:45.065Z,2.42
2023-11-01T10:00:13.288Z,2.40
2023-11-01T10:02:40.673Z,1.20
2023-11-01T10:05:08.131Z,1.50
2023-11-01T10:07:35.153Z,3.20
2023-11-01T10:10:05.233Z,1.90
2023-11-01T10:12:32.760Z,3.53
2023-11-01T10:14:59.748Z,1.00
2023-11-01T10:17:26.934Z,1.42
2023-11-01T10:19:53.804Z,4.53
2023-11-01T10:22:21.428Z,1.27
2023-11-01T10:24:48.361Z,1.55
2023-11-01T10:27:15.233Z,1.27
2023-11-01T10:29:44.602Z,4.40
2023-11-01T10:32:11.845Z,5.22
2023-11-01T10:34:38.873Z,3.63
2023-11-01T10:37:07.153Z,2.50
2023-11-01T10:39:37.360Z,1.83
2023-11-01T10:42:06.160Z,3.20
2023-11-01T10:44:33.679Z,0.93
2023-11-01T10:47:01.731Z,1.88
2023-11-01T10:49:29.570Z,1.35
2023-11-01T10:51:58.205Z,1.45
2023-11-01T10:54:30.784Z,1.63
2023-11-01T10:56:59.637Z,2.88
2023-11-01T10:59:44.691Z,4.05
2023-11-01T11:02:20.168Z,2.38
2023-11-01T11:05:06.981Z,2.22
2023-11-01T11:07:51.823Z,2.90
2023-11-01T11:10:25.345Z,1.73
2023-11-01T11:13:10.602Z,2.40
2023-11-01T11:15:53.050Z,2.53
2023-11-01T11:18:49.780Z,1.83
2023-11-01T11:22:03.418Z,1.33
2023-11-01T11:24:42.854Z,2.30
2023-11-01T11:27:50.008Z,2.95
2023-11-01T11:30:17.197Z,1.92
2023-11-01T11:32:44.206Z,2.63
2023-11-01T11:35:22.042Z,2.20
2023-11-01T11:37:49.065Z,1.35
2023-11-01T11:40:16.294Z,1.75
2023-11-01T11:42:43.094Z,1.75
2023-11-01T11:45:10.113Z,2.65
2023-11-01T11:47:37.210Z,1.52
2023-11-01T11:50:11.049Z,1.88
2023-11-01T11:52:50.642Z,2.15
2023-11-01T11:55:17.539Z,4.13
2023-11-01T11:57:44.519Z,1.33
2023-11-01T12:04:34.757Z,2.57
2023-11-01T12:07:02.584Z,1.95
2023-11-01T12:09:30.810Z,1.48
2023-11-01T12:11:59.838Z,2.95
2023-11-01T12:14:29.109Z,4.35
2023-11-01T12:16:59.948Z,2.28
2023-11-01T12:19:27.666Z,3.28
2023-11-01T12:21:59.833Z,2.85
2023-11-01T12:24:40.367Z,1.90
2023-11-01T12:27:08.295Z,2.40
2023-11-01T12:29:42.039Z,1.77
2023-11-01T12:32:29.737Z,0.90
2023-11-01T12:34:56.570Z,0.90
2023-11-01T12:37:25.541Z,1.77
2023-11-01T12:40:14.259Z,3.65
2023-11-01T12:42:50.887Z,2.53
2023-11-01T12:45:20.103Z,1.60
2023-11-01T12:47:48.219Z,4.05
2023-11-01T12:50:23.433Z,2.40
2023-11-01T12:52:50.484Z,2.20
2023-11-01T12:55:18.274Z,1.85
2023-11-01T12:57:56.941Z,3.30
2023-11-01T13:00:24.858Z,2.60
2023-11-01T13:02:52.904Z,3.10
2023-11-01T13:05:20.166Z,4.15
2023-11-01T13:07:47.266Z,4.20
2023-11-01T13:10:16.637Z,2.38
2023-11-01T13:12:48.534Z,2.88
2023-11-01T13:15:17.163Z,1.55
2023-11-01T13:17:44.881Z,2.65
2023-11-01T13:20:12.046Z,6.28
2023-11-01T13:22:38.970Z,3.08
2023-11-01T13:25:06.421Z,1.95
2023-11-01T13:27:33.259Z,3.90
2023-11-01T13:30:00.293Z,2.08
2023-11-01T13:32:27.360Z,1.63
2023-11-01T13:34:56.098Z,4.13
2023-11-01T13:37:23.041Z,1.77
2023-11-01T13:39:49.902Z,3.28
2023-11-01T13:42:17.233Z,1.90
2023-11-01T13:44:45.244Z,3.05
2023-11-01T13:47:12.441Z,4.15
2023-11-01T13:49:41.328Z,3.33
2023-11-01T13:52:09.186Z,4.72
2023-11-01T13:54:36.076Z,2.90
2023-11-01T13:57:04.701Z,9.45
2023-11-01T13:59:32.356Z,3.53
2023-11-01T14:04:35.122Z,3.25
2023-11-01T14:07:02.264Z,3.30
2023-11-01T14:09:29.396Z,6.50
2023-11-01T14:11:56.401Z,3.50
2023-11-01T14:14:24.802Z,4.78
2023-11-01T14:16:52.557Z,6.10
2023-11-01T14:19:19.922Z,3.38
2023-11-01T14:21:46.967Z,5.95
2023-11-01T14:24:17.223Z,2.55
2023-11-01T14:26:46.476Z,4.10
2023-11-01T14:29:13.506Z,7.50
2023-11-01T14:31:40.892Z,2.38
2023-11-01T14:34:08.604Z,2.75
2023-11-01T14:36:35.652Z,5.63
2023-11-01T14:39:02.531Z,2.67
2023-11-01T14:41:30.125Z,4.40
2023-11-01T14:43:59.335Z,2.75
2023-11-01T14:46:27.866Z,4.68
2023-11-01T14:48:55.133Z,5.20
2023-11-01T14:51:22.136Z,7.55
2023-11-01T14:53:49.872Z,6.68
2023-11-01T14:56:18.779Z,5.65
2023-11-01T14:58:48.622Z,5.82
2023-11-01T15:01:16.293Z,4.22
2023-11-01T15:03:47.210Z,9.27
2023-11-01T15:06:14.637Z,8.45
2023-11-01T15:08:42.077Z,8.18
2023-11-01T15:11:11.506Z,7.72
2023-11-01T15:13:38.609Z,10.65
2023-11-01T15:16:06.100Z,12.70
2023-11-01T15:18:33.159Z,16.17
2023-11-01T15:21:04.149Z,11.50
2023-11-01T15:23:33.750Z,15.00
2023-11-01T15:26:02.016Z,14.50
2023-11-01T15:28:29.169Z,13.20
2023-11-01T15:30:56.240Z,15.90
2023-11-01T15:33:23.377Z,13.27
2023-11-01T15:35:50.280Z,16.00
2023-11-01T15:38:17.769Z,11.10
2023-11-01T15:40:44.790Z,12.10
2023-11-01T15:43:11.703Z,11.05
2023-11-01T15:45:38.706Z,11.70
2023-11-01T15:48:06.860Z,11.80
2023-11-01T15:50:37.320Z,57.80
2023-11-01T15:53:04.845Z,27.73
2023-11-01T15:55:31.705Z,19.80
2023-11-01T15:57:58.536Z,19.00
2023-11-01T16:00:25.674Z,22.70
2023-11-01T16:02:52.602Z,20.70
2023-11-01T16:05:20.005Z,36.88
2023-11-01T16:07:47.432Z,50.13
2023-11-01T16:10:14.612Z,27.27
2023-11-01T16:12:41.647Z,18.92
2023-11-01T16:15:09.186Z,22.15
2023-11-01T16:17:36.133Z,16.77
2023-11-01T16:20:03.555Z,19.85
2023-11-01T16:22:30.967Z,26.98
2023-11-01T16:24:57.912Z,23.48
2023-11-01T16:27:24.812Z,23.30
2023-11-01T16:29:51.875Z,25.70
2023-11-01T16:32:19.131Z,24.73
2023-11-01T16:34:46.843Z,20.27
2023-11-01T16:37:14.647Z,32.05
2023-11-01T16:39:41.708Z,21.13
2023-11-01T16:42:09.358Z,24.95
2023-11-01T16:44:36.430Z,28.20
2023-11-01T16:47:03.502Z,17.65
2023-11-01T16:49:30.409Z,28.13
2023-11-01T16:51:57.328Z,21.65
2023-11-01T16:54:24.242Z,25.05
2023-11-01T16:56:51.244Z,26.45
2023-11-01T16:59:23.158Z,25.95
2023-11-01T17:01:50.234Z,24.05
2023-11-01T17:04:17.291Z,21.40
2023-11-01T17:06:44.935Z,26.63
2023-11-01T17:09:11.903Z,31.08
2023-11-01T17:11:38.885Z,25.95
2023-11-01T17:14:06.367Z,24.20
2023-11-01T17:16:33.220Z,29.95
2023-11-01T17:19:00.210Z,32.58
2023-11-01T17:21:30.846Z,27.58
2023-11-01T17:23:58.179Z,28.88
2023-11-01T17:26:29.294Z,31.13
2023-11-01T17:28:58.332Z,25.58
2023-11-01T17:31:43.349Z,23.25
2023-11-01T17:34:12.060Z,20.83
2023-11-01T17:36:39.811Z,21.10
2023-11-01T17:39:09.515Z,22.95
2023-11-01T17:41:45.387Z,25.13
2023-11-01T17:44:12.363Z,23.23
2023-11-01T17:46:50.789Z,24.45
2023-11-01T17:49:57.345Z,19.95
2023-11-01T17:52:32.043Z,26.55
2023-11-01T17:55:00.455Z,21.15
2023-11-01T17:57:27.452Z,24.40
2023-11-01T17:59:56.218Z,27.17
2023-11-01T18:02:32.391Z,31.77
2023-11-01T18:05:01.264Z,33.65
2023-11-01T18:07:28.313Z,28.55
2023-11-01T18:09:58.288Z,38.22
2023-11-01T18:12:25.494Z,46.22
2023-11-01T18:14:55.189Z,53.30
2023-11-01T18:17:23.238Z,51.05
2023-11-01T18:19:50.390Z,44.92
2023-11-01T18:22:41.528Z,42.15
2023-11-01T18:25:30.875Z,46.65
2023-11-01T18:28:01.762Z,38.65
2023-11-01T18:30:28.848Z,45.92
2023-11-01T18:32:55.738Z,41.42
2023-11-01T18:35:29.942Z,44.90
2023-11-01T18:37:56.781Z,44.42
2023-11-01T18:40:25.302Z,44.92
2023-11-01T18:42:58.701Z,48.92
2023-11-01T18:45:25.671Z,48.78
2023-11-01T18:47:58.408Z,50.97
2023-11-01T18:50:25.439Z,45.95
2023-11-01T18:52:52.368Z,42.03
2023-11-01T18:55:34.344Z,47.70
2023-11-01T18:58:01.291Z,42.33
2023-11-01T19:00:28.975Z,40.63
2023-11-01T19:03:04.581Z,38.58
2023-11-01T19:05:33.793Z,37.63
2023-11-01T19:08:01.663Z,40.00
2023-11-01T19:10:34.775Z,40.83
2023-11-01T19:13:02.986Z,38.05
2023-11-01T19:16:17.808Z,41.97
2023-11-01T19:18:49.393Z,39.00
2023-11-01T19:21:16.428Z,36.03
2023-11-01T19:23:45.508Z,40.03
2023-11-01T19:26:12.491Z,38.45
2023-11-01T19:28:39.368Z,44.60
2023-11-01T19:31:06.352Z,49.78
2023-11-01T19:33:34.232Z,46.72
2023-11-01T19:36:10.775Z,37.05
2023-11-01T19:38:43.339Z,36.35
2023-11-01T19:41:10.398Z,43.17
2023-11-01T19:43:37.605Z,47.95
2023-11-01T19:46:04.978Z,58.35
2023-11-01T19:48:31.955Z,45.63
2023-11-01T19:51:00.185Z,56.38
2023-11-01T19:53:27.668Z,63.83
2023-11-01T19:55:56.102Z,72.05
2023-11-01T19:58:22.974Z,83.47
2023-11-01T20:04:35.749Z,72.65
2023-11-01T20:07:03.284Z,61.28
2023-11-01T20:09:30.160Z,57.88
2023-11-01T20:11:57.335Z,56.83
2023-11-01T20:14:24.230Z,52.83
2023-11-01T20:16:51.271Z,51.53
2023-11-01T20:19:19.541Z,48.35
2023-11-01T20:21:46.492Z,49.55
2023-11-01T20:24:14.211Z,46.83
2023-11-01T20:26:41.901Z,45.10
2023-11-01T20:29:09.019Z,47.60
2023-11-01T20:31:36.632Z,49.78
2023-11-01T20:34:03.608Z,44.53
2023-11-01T20:36:30.754Z,43.47
2023-11-01T20:38:57.826Z,48.42
2023-11-01T20:41:24.783Z,45.92
2023-11-01T20:43:51.869Z,47.55
2023-11-01T20:46:18.697Z,41.13
2023-11-01T20:48:46.076Z,36.78
2023-11-01T20:51:15.331Z,36.17
2023-11-01T20:53:43.236Z,39.53
2023-11-01T20:56:10.894Z,41.75
2023-11-01T20:58:37.761Z,39.40
2023-11-01T21:04:06.758Z,35.00
2023-11-01T21:06:34.065Z,42.22
2023-11-01T21:09:00.934Z,33.45
2023-11-01T21:11:27.859Z,35.65
2023-11-01T21:13:54.791Z,32.72
2023-11-01T21:16:21.729Z,32.35
2023-11-01T21:18:48.652Z,24.02
2023-11-01T21:21:15.602Z,24.42
2023-11-01T21:23:42.889Z,22.73
2023-11-01T21:26:10.589Z,27.50
2023-11-01T21:28:40.661Z,20.77
2023-11-01T21:31:11.078Z,21.55
2023-11-01T21:33:40.860Z,23.48
2023-11-01T21:36:08.198Z,19.73
2023-11-01T21:38:35.126Z,28.63
2023-11-01T21:41:02.159Z,26.83
2023-11-01T21:43:29.076Z,27.48
2023-11-01T21:45:56.105Z,23.40
2023-11-01T21:48:25.348Z,25.60
2023-11-01T21:51:03.602Z,24.35
2023-11-01T21:53:32.048Z,20.58
2023-11-01T21:56:00.606Z,21.92
2023-11-01T21:58:28.983Z,19.70
2023-11-01T22:01:00.338Z,18.42
2023-11-01T22:03:43.071Z,20.65
2023-11-01T22:06:11.718Z,21.95
2023-11-01T22:08:44.720Z,23.92
2023-11-01T22:11:13.590Z,23.38
2023-11-01T22:13:40.486Z,20.85
2023-11-01T22:16:07.879Z,27.05
2023-11-01T22:18:34.862Z,23.02
2023-11-01T22:21:01.967Z,24.92
2023-11-01T22:23:28.833Z,22.63
2023-11-01T22:25:57.025Z,22.88
2023-11-01T22:28:28.587Z,18.60
2023-11-01T22:30:55.457Z,20.45
2023-11-01T22:33:22.732Z,19.00
2023-11-01T22:35:50.192Z,19.77
2023-11-01T22:38:17.989Z,27.35
2023-11-01T22:40:48.487Z,21.45
2023-11-01T22:43:25.097Z,23.08
2023-11-01T22:45:53.164Z,18.63
2023-11-01T22:48:20.168Z,17.85
2023-11-01T22:50:47.297Z,17.92
2023-11-01T22:53:14.285Z,13.65
2023-11-01T22:55:42.729Z,20.80
2023-11-01T22:58:11.041Z,12.95
2023-11-01T23:00:38.295Z,16.65
2023-11-01T23:03:06.691Z,14.13
2023-11-01T23:05:35.815Z,17.13
2023-11-01T23:08:03.238Z,22.98
2023-11-01T23:10:32.529Z,16.35
2023-11-01T23:13:01.732Z,15.18
2023-11-01T23:15:29.278Z,15.35
2023-11-01T23:17:58.282Z,13.65
2023-11-01T23:20:25.413Z,18.25
2023-11-01T23:22:53.973Z,14.38
2023-11-01T23:25:31.271Z,12.85
2023-11-01T23:28:30.871Z,12.65
2023-11-01T23:30:58.516Z,12.27
2023-11-01T23:33:39.491Z,14.68
2023-11-01T23:36:14.059Z,14.15
2023-11-01T23:38:48.381Z,10.98
2023-11-01T23:41:26.202Z,13.38
2023-11-01T23:44:05.476Z,10.75
2023-11-01T23:46:32.880Z,12.35
2023-11-01T23:49:03.707Z,13.07
2023-11-01T23:51:39.507Z,13.85
2023-11-01T23:54:07.586Z,14.20
2023-11-01T23:56:41.153Z,14.95
2023-11-01T23:59:08.935Z,12.05
